sensor_id;sensor_type;location;lat;lon;timestamp;P1;durP1;ratioP1;P2;durP2;ratioP2
5704;SDS011;2877;48.238;11.160;2023-04-01T00:00:47;4.63;;;0.43;;
5704;SDS011;2877;48.238;11.160;2023-04-01T00:03:12;3.30;;;1.00;;
5704;SDS011;2877;48.238;11.160;2023-04-01T00:05:38;2.30;;;0.53;;
5704;SDS011;2877;48.238;11.160;2023-04-01T00:08:04;1.83;;;0.50;;
5704;SDS011;2877;48.238;11.160;2023-04-01T00:10:30;0.67;;;0.50;;
5704;SDS011;2877;48.238;11.160;2023-04-01T00:12:55;0.30;;;0.30;;
5704;SDS011;2877;48.238;11.160;2023-04-01T00:15:21;0.40;;;0.40;;
5704;SDS011;2877;48.238;11.160;2023-04-01T00:17:47;1.27;;;0.60;;
5704;SDS011;2877;48.238;11.160;2023-04-01T00:20:13;1.80;;;0.50;;
5704;SDS011;2877;48.238;11.160;2023-04-01T00:22:39;0.73;;;0.40;;
5704;SDS011;2877;48.238;11.160;2023-04-01T00:25:05;0.40;;;0.40;;
5704;SDS011;2877;48.238;11.160;2023-04-01T00:27:30;1.23;;;0.50;;
5704;SDS011;2877;48.238;11.160;2023-04-01T00:29:56;0.67;;;0.40;;
5704;SDS011;2877;48.238;11.160;2023-04-01T00:32:22;1.33;;;0.70;;
5704;SDS011;2877;48.238;11.160;2023-04-01T00:34:49;1.27;;;0.60;;
5704;SDS011;2877;48.238;11.160;2023-04-01T00:37:16;0.53;;;0.50;;
5704;SDS011;2877;48.238;11.160;2023-04-01T00:39:42;2.30;;;0.60;;
5704;SDS011;2877;48.238;11.160;2023-04-01T00:42:08;0.43;;;0.43;;
5704;SDS011;2877;48.238;11.160;2023-04-01T00:44:36;3.50;;;0.77;;
5704;SDS011;2877;48.238;11.160;2023-04-01T00:47:03;2.40;;;0.63;;
5704;SDS011;2877;48.238;11.160;2023-04-01T00:49:33;0.60;;;0.60;;
5704;SDS011;2877;48.238;11.160;2023-04-01T00:52:02;0.77;;;0.60;;
5704;SDS011;2877;48.238;11.160;2023-04-01T00:54:31;1.07;;;0.60;;
5704;SDS011;2877;48.238;11.160;2023-04-01T00:56:59;1.27;;;0.50;;
5704;SDS011;2877;48.238;11.160;2023-04-01T00:59:36;1.20;;;0.40;;
5704;SDS011;2877;48.238;11.160;2023-04-01T01:02:07;0.60;;;0.60;;
5704;SDS011;2877;48.238;11.160;2023-04-01T01:04:34;0.50;;;0.40;;
5704;SDS011;2877;48.238;11.160;2023-04-01T01:09:49;2.33;;;0.73;;
5704;SDS011;2877;48.238;11.160;2023-04-01T01:12:39;0.70;;;0.50;;
5704;SDS011;2877;48.238;11.160;2023-04-01T01:15:12;0.47;;;0.47;;
5704;SDS011;2877;48.238;11.160;2023-04-01T01:24:04;1.67;;;0.73;;
5704;SDS011;2877;48.238;11.160;2023-04-01T01:26:57;4.67;;;0.40;;
5704;SDS011;2877;48.238;11.160;2023-04-01T01:29:28;1.33;;;0.50;;
5704;SDS011;2877;48.238;11.160;2023-04-01T01:35:22;1.03;;;0.50;;
5704;SDS011;2877;48.238;11.160;2023-04-01T01:37:59;1.13;;;0.50;;
5704;SDS011;2877;48.238;11.160;2023-04-01T01:40:27;1.87;;;0.70;;
5704;SDS011;2877;48.238;11.160;2023-04-01T01:42:57;0.83;;;0.50;;
5704;SDS011;2877;48.238;11.160;2023-04-01T01:45:26;2.00;;;0.70;;
5704;SDS011;2877;48.238;11.160;2023-04-01T01:47:54;0.60;;;0.40;;
5704;SDS011;2877;48.238;11.160;2023-04-01T01:50:20;1.10;;;0.40;;
5704;SDS011;2877;48.238;11.160;2023-04-01T01:52:47;0.60;;;0.50;;
5704;SDS011;2877;48.238;11.160;2023-04-01T01:55:35;1.80;;;0.50;;
5704;SDS011;2877;48.238;11.160;2023-04-01T01:58:10;0.40;;;0.40;;
5704;SDS011;2877;48.238;11.160;2023-04-01T02:00:41;1.80;;;0.50;;
5704;SDS011;2877;48.238;11.160;2023-04-01T02:03:10;0.60;;;0.40;;
5704;SDS011;2877;48.238;11.160;2023-04-01T02:05:38;0.40;;;0.40;;
5704;SDS011;2877;48.238;11.160;2023-04-01T02:08:06;1.50;;;0.60;;
5704;SDS011;2877;48.238;11.160;2023-04-01T02:11:00;1.50;;;0.60;;
5704;SDS011;2877;48.238;11.160;2023-04-01T02:13:34;1.00;;;0.37;;
5704;SDS011;2877;48.238;11.160;2023-04-01T02:16:02;2.63;;;0.43;;
5704;SDS011;2877;48.238;11.160;2023-04-01T02:18:32;0.90;;;0.50;;
5704;SDS011;2877;48.238;11.160;2023-04-01T02:21:01;1.00;;;0.40;;
5704;SDS011;2877;48.238;11.160;2023-04-01T02:23:29;0.50;;;0.50;;
5704;SDS011;2877;48.238;11.160;2023-04-01T02:25:58;0.70;;;0.50;;
5704;SDS011;2877;48.238;11.160;2023-04-01T02:28:23;0.70;;;0.63;;
5704;SDS011;2877;48.238;11.160;2023-04-01T02:30:50;0.77;;;0.40;;
5704;SDS011;2877;48.238;11.160;2023-04-01T02:33:16;1.60;;;0.53;;
5704;SDS011;2877;48.238;11.160;2023-04-01T02:35:43;0.50;;;0.47;;
5704;SDS011;2877;48.238;11.160;2023-04-01T02:38:09;0.60;;;0.50;;
5704;SDS011;2877;48.238;11.160;2023-04-01T02:40:48;2.83;;;0.40;;
5704;SDS011;2877;48.238;11.160;2023-04-01T02:43:15;0.60;;;0.43;;
5704;SDS011;2877;48.238;11.160;2023-04-01T02:45:41;0.33;;;0.33;;
5704;SDS011;2877;48.238;11.160;2023-04-01T02:48:07;0.80;;;0.40;;
5704;SDS011;2877;48.238;11.160;2023-04-01T02:50:33;0.60;;;0.30;;
5704;SDS011;2877;48.238;11.160;2023-04-01T02:52:59;0.50;;;0.40;;
5704;SDS011;2877;48.238;11.160;2023-04-01T02:55:25;1.00;;;0.60;;
5704;SDS011;2877;48.238;11.160;2023-04-01T02:57:51;0.50;;;0.50;;
5704;SDS011;2877;48.238;11.160;2023-04-01T03:00:16;1.03;;;0.40;;
5704;SDS011;2877;48.238;11.160;2023-04-01T03:02:42;0.93;;;0.37;;
5704;SDS011;2877;48.238;11.160;2023-04-01T03:05:09;0.40;;;0.40;;
5704;SDS011;2877;48.238;11.160;2023-04-01T03:07:35;0.30;;;0.30;;
5704;SDS011;2877;48.238;11.160;2023-04-01T03:10:00;0.87;;;0.30;;
5704;SDS011;2877;48.238;11.160;2023-04-01T03:12:26;0.30;;;0.30;;
5704;SDS011;2877;48.238;11.160;2023-04-01T03:14:51;1.03;;;0.87;;
5704;SDS011;2877;48.238;11.160;2023-04-01T03:17:17;1.03;;;0.40;;
5704;SDS011;2877;48.238;11.160;2023-04-01T03:19:42;0.70;;;0.40;;
5704;SDS011;2877;48.238;11.160;2023-04-01T03:22:09;0.40;;;0.40;;
5704;SDS011;2877;48.238;11.160;2023-04-01T03:24:36;0.37;;;0.30;;
5704;SDS011;2877;48.238;11.160;2023-04-01T03:27:01;0.80;;;0.40;;
5704;SDS011;2877;48.238;11.160;2023-04-01T03:29:27;0.63;;;0.40;;
5704;SDS011;2877;48.238;11.160;2023-04-01T03:31:52;0.40;;;0.30;;
5704;SDS011;2877;48.238;11.160;2023-04-01T03:34:18;2.10;;;0.40;;
5704;SDS011;2877;48.238;11.160;2023-04-01T03:36:43;0.30;;;0.30;;
5704;SDS011;2877;48.238;11.160;2023-04-01T03:39:09;0.40;;;0.40;;
5704;SDS011;2877;48.238;11.160;2023-04-01T03:41:35;0.30;;;0.30;;
5704;SDS011;2877;48.238;11.160;2023-04-01T03:44:02;0.30;;;0.30;;
5704;SDS011;2877;48.238;11.160;2023-04-01T03:46:28;0.33;;;0.33;;
5704;SDS011;2877;48.238;11.160;2023-04-01T03:48:53;0.77;;;0.40;;
5704;SDS011;2877;48.238;11.160;2023-04-01T03:51:19;0.30;;;0.30;;
5704;SDS011;2877;48.238;11.160;2023-04-01T03:53:44;0.63;;;0.50;;
5704;SDS011;2877;48.238;11.160;2023-04-01T03:56:10;0.60;;;0.40;;
5704;SDS011;2877;48.238;11.160;2023-04-01T03:58:36;1.33;;;0.40;;
5704;SDS011;2877;48.238;11.160;2023-04-01T04:01:03;1.70;;;0.30;;
5704;SDS011;2877;48.238;11.160;2023-04-01T04:03:42;0.30;;;0.30;;
5704;SDS011;2877;48.238;11.160;2023-04-01T04:06:12;1.60;;;0.40;;
5704;SDS011;2877;48.238;11.160;2023-04-01T04:08:38;0.40;;;0.40;;
5704;SDS011;2877;48.238;11.160;2023-04-01T04:11:04;0.60;;;0.40;;
5704;SDS011;2877;48.238;11.160;2023-04-01T04:13:29;0.83;;;0.30;;
5704;SDS011;2877;48.238;11.160;2023-04-01T04:15:55;0.30;;;0.30;;
5704;SDS011;2877;48.238;11.160;2023-04-01T04:18:20;0.37;;;0.33;;
5704;SDS011;2877;48.238;11.160;2023-04-01T04:20:46;1.27;;;0.40;;
5704;SDS011;2877;48.238;11.160;2023-04-01T04:23:15;0.40;;;0.40;;
5704;SDS011;2877;48.238;11.160;2023-04-01T04:25:40;0.50;;;0.40;;
5704;SDS011;2877;48.238;11.160;2023-04-01T04:28:06;0.80;;;0.57;;
5704;SDS011;2877;48.238;11.160;2023-04-01T04:30:31;0.40;;;0.40;;
5704;SDS011;2877;48.238;11.160;2023-04-01T04:32:57;1.63;;;0.47;;
5704;SDS011;2877;48.238;11.160;2023-04-01T04:35:22;0.77;;;0.40;;
5704;SDS011;2877;48.238;11.160;2023-04-01T04:37:48;0.30;;;0.30;;
5704;SDS011;2877;48.238;11.160;2023-04-01T04:40:14;0.50;;;0.50;;
5704;SDS011;2877;48.238;11.160;2023-04-01T04:42:39;0.53;;;0.50;;
5704;SDS011;2877;48.238;11.160;2023-04-01T04:45:05;2.17;;;0.50;;
5704;SDS011;2877;48.238;11.160;2023-04-01T04:47:31;2.17;;;0.60;;
5704;SDS011;2877;48.238;11.160;2023-04-01T04:49:57;0.47;;;0.40;;
5704;SDS011;2877;48.238;11.160;2023-04-01T04:52:22;2.23;;;0.70;;
5704;SDS011;2877;48.238;11.160;2023-04-01T04:54:48;1.27;;;0.50;;
5704;SDS011;2877;48.238;11.160;2023-04-01T04:57:13;0.40;;;0.40;;
5704;SDS011;2877;48.238;11.160;2023-04-01T04:59:39;0.40;;;0.40;;
5704;SDS011;2877;48.238;11.160;2023-04-01T05:02:05;0.57;;;0.50;;
5704;SDS011;2877;48.238;11.160;2023-04-01T05:04:33;0.93;;;0.43;;
5704;SDS011;2877;48.238;11.160;2023-04-01T05:07:00;0.83;;;0.40;;
5704;SDS011;2877;48.238;11.160;2023-04-01T05:09:25;0.50;;;0.40;;
5704;SDS011;2877;48.238;11.160;2023-04-01T05:11:51;0.40;;;0.40;;
5704;SDS011;2877;48.238;11.160;2023-04-01T05:14:17;1.07;;;0.40;;
5704;SDS011;2877;48.238;11.160;2023-04-01T05:16:42;1.33;;;0.60;;
5704;SDS011;2877;48.238;11.160;2023-04-01T05:19:08;1.23;;;0.70;;
5704;SDS011;2877;48.238;11.160;2023-04-01T05:21:33;3.47;;;1.20;;
5704;SDS011;2877;48.238;11.160;2023-04-01T05:23:59;2.30;;;0.60;;
5704;SDS011;2877;48.238;11.160;2023-04-01T05:26:24;0.70;;;0.70;;
5704;SDS011;2877;48.238;11.160;2023-04-01T05:28:50;0.90;;;0.43;;
5704;SDS011;2877;48.238;11.160;2023-04-01T05:31:15;0.97;;;0.40;;
5704;SDS011;2877;48.238;11.160;2023-04-01T05:33:41;1.73;;;1.17;;
5704;SDS011;2877;48.238;11.160;2023-04-01T05:36:10;6.40;;;1.23;;
5704;SDS011;2877;48.238;11.160;2023-04-01T05:38:39;1.00;;;0.90;;
5704;SDS011;2877;48.238;11.160;2023-04-01T05:41:05;0.50;;;0.50;;
5704;SDS011;2877;48.238;11.160;2023-04-01T05:43:30;0.97;;;0.87;;
5704;SDS011;2877;48.238;11.160;2023-04-01T05:46:00;1.23;;;0.50;;
5704;SDS011;2877;48.238;11.160;2023-04-01T05:48:25;1.90;;;0.50;;
5704;SDS011;2877;48.238;11.160;2023-04-01T05:50:51;1.90;;;0.60;;
5704;SDS011;2877;48.238;11.160;2023-04-01T05:53:16;0.60;;;0.50;;
5704;SDS011;2877;48.238;11.160;2023-04-01T05:55:42;0.57;;;0.57;;
5704;SDS011;2877;48.238;11.160;2023-04-01T05:58:07;0.63;;;0.50;;
5704;SDS011;2877;48.238;11.160;2023-04-01T06:00:33;0.93;;;0.80;;
5704;SDS011;2877;48.238;11.160;2023-04-01T06:02:59;3.07;;;0.63;;
5704;SDS011;2877;48.238;11.160;2023-04-01T06:05:27;1.63;;;0.80;;
5704;SDS011;2877;48.238;11.160;2023-04-01T06:07:58;0.90;;;0.50;;
5704;SDS011;2877;48.238;11.160;2023-04-01T06:10:36;5.00;;;0.73;;
5704;SDS011;2877;48.238;11.160;2023-04-01T06:13:12;3.73;;;0.40;;
5704;SDS011;2877;48.238;11.160;2023-04-01T06:21:20;1.27;;;0.50;;
5704;SDS011;2877;48.238;11.160;2023-04-01T06:34:26;1.90;;;0.43;;
5704;SDS011;2877;48.238;11.160;2023-04-01T06:54:03;0.40;;;0.40;;
5704;SDS011;2877;48.238;11.160;2023-04-01T06:56:45;2.57;;;0.70;;
5704;SDS011;2877;48.238;11.160;2023-04-01T06:59:16;1.67;;;0.50;;
5704;SDS011;2877;48.238;11.160;2023-04-01T07:01:49;0.67;;;0.50;;
5704;SDS011;2877;48.238;11.160;2023-04-01T07:04:22;0.80;;;0.60;;
5704;SDS011;2877;48.238;11.160;2023-04-01T07:09:37;2.77;;;0.70;;
5704;SDS011;2877;48.238;11.160;2023-04-01T07:12:09;2.30;;;1.00;;
5704;SDS011;2877;48.238;11.160;2023-04-01T07:14:40;0.93;;;0.63;;
5704;SDS011;2877;48.238;11.160;2023-04-01T07:19:50;0.50;;;0.50;;
5704;SDS011;2877;48.238;11.160;2023-04-01T07:22:26;3.07;;;0.70;;
5704;SDS011;2877;48.238;11.160;2023-04-01T07:24:53;0.60;;;0.40;;
5704;SDS011;2877;48.238;11.160;2023-04-01T07:27:19;0.40;;;0.40;;
5704;SDS011;2877;48.238;11.160;2023-04-01T07:29:44;0.60;;;0.47;;
5704;SDS011;2877;48.238;11.160;2023-04-01T07:32:15;1.47;;;0.40;;
5704;SDS011;2877;48.238;11.160;2023-04-01T07:40:57;1.10;;;0.50;;
5704;SDS011;2877;48.238;11.160;2023-04-01T07:46:33;0.40;;;0.37;;
5704;SDS011;2877;48.238;11.160;2023-04-01T07:57:07;0.93;;;0.57;;
5704;SDS011;2877;48.238;11.160;2023-04-01T08:07:48;0.40;;;0.40;;
5704;SDS011;2877;48.238;11.160;2023-04-01T08:13:15;0.40;;;0.40;;
5704;SDS011;2877;48.238;11.160;2023-04-01T08:21:33;0.30;;;0.30;;
5704;SDS011;2877;48.238;11.160;2023-04-01T08:24:11;0.87;;;0.50;;
5704;SDS011;2877;48.238;11.160;2023-04-01T08:26:54;0.97;;;0.40;;
5704;SDS011;2877;48.238;11.160;2023-04-01T08:29:31;0.47;;;0.47;;
5704;SDS011;2877;48.238;11.160;2023-04-01T08:34:39;0.60;;;0.40;;
5704;SDS011;2877;48.238;11.160;2023-04-01T08:37:08;2.23;;;1.37;;
5704;SDS011;2877;48.238;11.160;2023-04-01T08:39:50;0.70;;;0.50;;
5704;SDS011;2877;48.238;11.160;2023-04-01T08:45:28;1.13;;;0.40;;
5704;SDS011;2877;48.238;11.160;2023-04-01T08:48:10;0.77;;;0.40;;
5704;SDS011;2877;48.238;11.160;2023-04-01T08:50:55;0.30;;;0.30;;
5704;SDS011;2877;48.238;11.160;2023-04-01T08:59:51;1.77;;;0.40;;
5704;SDS011;2877;48.238;11.160;2023-04-01T09:13:34;1.80;;;0.80;;
5704;SDS011;2877;48.238;11.160;2023-04-01T09:18:58;1.40;;;1.30;;
5704;SDS011;2877;48.238;11.160;2023-04-01T09:33:16;0.43;;;0.40;;
5704;SDS011;2877;48.238;11.160;2023-04-01T09:36:12;0.40;;;0.40;;
5704;SDS011;2877;48.238;11.160;2023-04-01T09:39:12;0.90;;;0.60;;
5704;SDS011;2877;48.238;11.160;2023-04-01T09:41:54;0.30;;;0.30;;
5704;SDS011;2877;48.238;11.160;2023-04-01T09:44:25;0.30;;;0.30;;
5704;SDS011;2877;48.238;11.160;2023-04-01T09:47:20;0.40;;;0.40;;
5704;SDS011;2877;48.238;11.160;2023-04-01T09:53:03;0.40;;;0.37;;
5704;SDS011;2877;48.238;11.160;2023-04-01T09:56:09;0.60;;;0.50;;
5704;SDS011;2877;48.238;11.160;2023-04-01T10:12:40;3.00;;;0.40;;
5704;SDS011;2877;48.238;11.160;2023-04-01T10:17:51;0.30;;;0.30;;
5704;SDS011;2877;48.238;11.160;2023-04-01T10:32:13;0.40;;;0.40;;
5704;SDS011;2877;48.238;11.160;2023-04-01T10:34:54;0.50;;;0.50;;
5704;SDS011;2877;48.238;11.160;2023-04-01T10:40:38;0.30;;;0.30;;
5704;SDS011;2877;48.238;11.160;2023-04-01T10:43:46;0.30;;;0.30;;
5704;SDS011;2877;48.238;11.160;2023-04-01T10:46:55;0.40;;;0.40;;
5704;SDS011;2877;48.238;11.160;2023-04-01T11:26:36;0.43;;;0.40;;
5704;SDS011;2877;48.238;11.160;2023-04-01T11:32:33;0.30;;;0.30;;
5704;SDS011;2877;48.238;11.160;2023-04-01T11:38:26;0.40;;;0.40;;
5704;SDS011;2877;48.238;11.160;2023-04-01T11:41:25;1.23;;;0.60;;
5704;SDS011;2877;48.238;11.160;2023-04-01T11:44:15;0.70;;;0.40;;
5704;SDS011;2877;48.238;11.160;2023-04-01T11:49:25;0.30;;;0.30;;
5704;SDS011;2877;48.238;11.160;2023-04-01T12:03:10;0.50;;;0.50;;
5704;SDS011;2877;48.238;11.160;2023-04-01T12:05:50;1.67;;;1.57;;
5704;SDS011;2877;48.238;11.160;2023-04-01T12:17:23;0.40;;;0.40;;
5704;SDS011;2877;48.238;11.160;2023-04-01T12:25:45;1.60;;;0.50;;
5704;SDS011;2877;48.238;11.160;2023-04-01T12:31:21;0.40;;;0.40;;
5704;SDS011;2877;48.238;11.160;2023-04-01T12:45:49;0.40;;;0.40;;
5704;SDS011;2877;48.238;11.160;2023-04-01T12:51:16;0.40;;;0.40;;
5704;SDS011;2877;48.238;11.160;2023-04-01T12:54:07;0.40;;;0.40;;
5704;SDS011;2877;48.238;11.160;2023-04-01T12:57:14;0.40;;;0.40;;
5704;SDS011;2877;48.238;11.160;2023-04-01T13:05:47;0.50;;;0.40;;
5704;SDS011;2877;48.238;11.160;2023-04-01T13:08:43;0.40;;;0.40;;
5704;SDS011;2877;48.238;11.160;2023-04-01T13:12:30;0.40;;;0.40;;
5704;SDS011;2877;48.238;11.160;2023-04-01T13:19:49;0.40;;;0.40;;
5704;SDS011;2877;48.238;11.160;2023-04-01T13:28:23;0.50;;;0.40;;
5704;SDS011;2877;48.238;11.160;2023-04-01T13:31:05;0.40;;;0.40;;
5704;SDS011;2877;48.238;11.160;2023-04-01T13:53:38;0.40;;;0.40;;
5704;SDS011;2877;48.238;11.160;2023-04-01T13:56:21;0.40;;;0.40;;
5704;SDS011;2877;48.238;11.160;2023-04-01T14:04:46;1.10;;;0.47;;
5704;SDS011;2877;48.238;11.160;2023-04-01T14:07:29;0.50;;;0.50;;
5704;SDS011;2877;48.238;11.160;2023-04-01T14:13:02;0.40;;;0.40;;
5704;SDS011;2877;48.238;11.160;2023-04-01T14:15:49;0.60;;;0.40;;
5704;SDS011;2877;48.238;11.160;2023-04-01T14:18:47;0.30;;;0.30;;
5704;SDS011;2877;48.238;11.160;2023-04-01T14:24:08;0.40;;;0.40;;
5704;SDS011;2877;48.238;11.160;2023-04-01T14:27:06;0.60;;;0.50;;
5704;SDS011;2877;48.238;11.160;2023-04-01T14:29:59;0.40;;;0.40;;
5704;SDS011;2877;48.238;11.160;2023-04-01T14:35:41;0.40;;;0.40;;
5704;SDS011;2877;48.238;11.160;2023-04-01T14:38:54;0.40;;;0.40;;
5704;SDS011;2877;48.238;11.160;2023-04-01T14:41:41;0.87;;;0.57;;
5704;SDS011;2877;48.238;11.160;2023-04-01T14:50:05;0.37;;;0.30;;
5704;SDS011;2877;48.238;11.160;2023-04-01T14:52:42;0.30;;;0.30;;
5704;SDS011;2877;48.238;11.160;2023-04-01T14:55:24;0.80;;;0.80;;
5704;SDS011;2877;48.238;11.160;2023-04-01T14:57:59;0.73;;;0.50;;
5704;SDS011;2877;48.238;11.160;2023-04-01T15:00:40;0.40;;;0.40;;
5704;SDS011;2877;48.238;11.160;2023-04-01T15:11:06;0.40;;;0.40;;
5704;SDS011;2877;48.238;11.160;2023-04-01T15:14:19;0.40;;;0.30;;
5704;SDS011;2877;48.238;11.160;2023-04-01T15:17:01;0.83;;;0.30;;
5704;SDS011;2877;48.238;11.160;2023-04-01T15:22:57;0.33;;;0.33;;
5704;SDS011;2877;48.238;11.160;2023-04-01T15:36:13;0.60;;;0.30;;
5704;SDS011;2877;48.238;11.160;2023-04-01T15:39:10;0.30;;;0.30;;
5704;SDS011;2877;48.238;11.160;2023-04-01T16:03:33;0.40;;;0.40;;
5704;SDS011;2877;48.238;11.160;2023-04-01T16:11:53;0.40;;;0.40;;
5704;SDS011;2877;48.238;11.160;2023-04-01T16:14:40;0.43;;;0.43;;
5704;SDS011;2877;48.238;11.160;2023-04-01T16:20:24;0.50;;;0.40;;
5704;SDS011;2877;48.238;11.160;2023-04-01T16:25:45;1.00;;;0.50;;
5704;SDS011;2877;48.238;11.160;2023-04-01T16:28:55;0.40;;;0.40;;
5704;SDS011;2877;48.238;11.160;2023-04-01T16:31:46;0.40;;;0.40;;
5704;SDS011;2877;48.238;11.160;2023-04-01T16:34:38;0.40;;;0.40;;
5704;SDS011;2877;48.238;11.160;2023-04-01T16:37:20;0.37;;;0.37;;
5704;SDS011;2877;48.238;11.160;2023-04-01T16:42:55;1.00;;;0.40;;
5704;SDS011;2877;48.238;11.160;2023-04-01T16:45:43;0.40;;;0.40;;
5704;SDS011;2877;48.238;11.160;2023-04-01T16:49:02;0.90;;;0.70;;
5704;SDS011;2877;48.238;11.160;2023-04-01T16:51:16;0.50;;;0.50;;
5704;SDS011;2877;48.238;11.160;2023-04-01T16:53:48;1.47;;;0.60;;
5704;SDS011;2877;48.238;11.160;2023-04-01T16:56:21;0.63;;;0.40;;
5704;SDS011;2877;48.238;11.160;2023-04-01T17:01:43;1.03;;;0.57;;
5704;SDS011;2877;48.238;11.160;2023-04-01T17:04:32;0.40;;;0.40;;
5704;SDS011;2877;48.238;11.160;2023-04-01T17:12:33;1.57;;;1.10;;
5704;SDS011;2877;48.238;11.160;2023-04-01T17:17:51;1.63;;;1.53;;
5704;SDS011;2877;48.238;11.160;2023-04-01T17:20:31;0.60;;;0.60;;
5704;SDS011;2877;48.238;11.160;2023-04-01T17:25:50;0.60;;;0.60;;
5704;SDS011;2877;48.238;11.160;2023-04-01T17:28:40;1.87;;;0.60;;
5704;SDS011;2877;48.238;11.160;2023-04-01T17:31:40;1.03;;;0.90;;
5704;SDS011;2877;48.238;11.160;2023-04-01T17:34:32;0.70;;;0.70;;
5704;SDS011;2877;48.238;11.160;2023-04-01T17:37:28;0.97;;;0.63;;
5704;SDS011;2877;48.238;11.160;2023-04-01T17:40:18;0.40;;;0.40;;
5704;SDS011;2877;48.238;11.160;2023-04-01T17:56:55;2.10;;;0.70;;
5704;SDS011;2877;48.238;11.160;2023-04-01T18:05:14;0.60;;;0.60;;
5704;SDS011;2877;48.238;11.160;2023-04-01T18:08:07;0.50;;;0.50;;
5704;SDS011;2877;48.238;11.160;2023-04-01T18:10:48;0.80;;;0.60;;
5704;SDS011;2877;48.238;11.160;2023-04-01T18:13:37;1.77;;;0.70;;
5704;SDS011;2877;48.238;11.160;2023-04-01T18:16:22;0.80;;;0.80;;
5704;SDS011;2877;48.238;11.160;2023-04-01T18:22:21;0.63;;;0.60;;
5704;SDS011;2877;48.238;11.160;2023-04-01T18:27:41;0.40;;;0.40;;
5704;SDS011;2877;48.238;11.160;2023-04-01T18:30:17;1.03;;;0.60;;
5704;SDS011;2877;48.238;11.160;2023-04-01T18:33:03;0.60;;;0.60;;
5704;SDS011;2877;48.238;11.160;2023-04-01T18:35:53;0.80;;;0.50;;
5704;SDS011;2877;48.238;11.160;2023-04-01T18:38:36;0.50;;;0.50;;
5704;SDS011;2877;48.238;11.160;2023-04-01T18:41:48;0.50;;;0.50;;
5704;SDS011;2877;48.238;11.160;2023-04-01T18:52:31;1.40;;;0.50;;
5704;SDS011;2877;48.238;11.160;2023-04-01T18:57:26;0.60;;;0.50;;
5704;SDS011;2877;48.238;11.160;2023-04-01T19:05:34;0.90;;;0.73;;
5704;SDS011;2877;48.238;11.160;2023-04-01T19:21:01;2.20;;;1.60;;
5704;SDS011;2877;48.238;11.160;2023-04-01T19:23:53;1.10;;;1.10;;
5704;SDS011;2877;48.238;11.160;2023-04-01T19:26:35;0.73;;;0.70;;
5704;SDS011;2877;48.238;11.160;2023-04-01T19:34:38;0.80;;;0.80;;
5704;SDS011;2877;48.238;11.160;2023-04-01T19:40:04;1.67;;;1.47;;
5704;SDS011;2877;48.238;11.160;2023-04-01T19:42:56;2.63;;;2.10;;
5704;SDS011;2877;48.238;11.160;2023-04-01T19:48:36;2.13;;;1.93;;
5704;SDS011;2877;48.238;11.160;2023-04-01T19:51:28;5.60;;;3.80;;
5704;SDS011;2877;48.238;11.160;2023-04-01T19:56:58;2.53;;;2.33;;
5704;SDS011;2877;48.238;11.160;2023-04-01T20:04:40;0.70;;;0.70;;
5704;SDS011;2877;48.238;11.160;2023-04-01T20:07:18;1.10;;;0.80;;
5704;SDS011;2877;48.238;11.160;2023-04-01T20:12:45;0.57;;;0.57;;
5704;SDS011;2877;48.238;11.160;2023-04-01T20:15:22;1.33;;;1.23;;
5704;SDS011;2877;48.238;11.160;2023-04-01T20:17:59;1.53;;;1.07;;
5704;SDS011;2877;48.238;11.160;2023-04-01T20:20:28;0.60;;;0.60;;
5704;SDS011;2877;48.238;11.160;2023-04-01T20:25:41;1.23;;;1.10;;
5704;SDS011;2877;48.238;11.160;2023-04-01T20:30:46;1.00;;;1.00;;
5704;SDS011;2877;48.238;11.160;2023-04-01T20:33:37;1.93;;;0.93;;
5704;SDS011;2877;48.238;11.160;2023-04-01T20:36:16;0.50;;;0.50;;
5704;SDS011;2877;48.238;11.160;2023-04-01T20:44:19;2.47;;;0.60;;
5704;SDS011;2877;48.238;11.160;2023-04-01T20:49:48;0.57;;;0.53;;
5704;SDS011;2877;48.238;11.160;2023-04-01T20:52:26;0.40;;;0.40;;
5704;SDS011;2877;48.238;11.160;2023-04-01T21:00:45;0.50;;;0.50;;
5704;SDS011;2877;48.238;11.160;2023-04-01T21:14:44;0.60;;;0.50;;
5704;SDS011;2877;48.238;11.160;2023-04-01T21:20:24;0.40;;;0.40;;
5704;SDS011;2877;48.238;11.160;2023-04-01T21:23:00;0.50;;;0.50;;
5704;SDS011;2877;48.238;11.160;2023-04-01T21:34:07;1.03;;;0.67;;
5704;SDS011;2877;48.238;11.160;2023-04-01T21:48:44;0.50;;;0.50;;
5704;SDS011;2877;48.238;11.160;2023-04-01T22:14:03;0.40;;;0.40;;
5704;SDS011;2877;48.238;11.160;2023-04-01T22:22:01;0.40;;;0.40;;
5704;SDS011;2877;48.238;11.160;2023-04-01T22:27:55;0.60;;;0.60;;
5704;SDS011;2877;48.238;11.160;2023-04-01T22:30:33;0.50;;;0.50;;
5704;SDS011;2877;48.238;11.160;2023-04-01T22:33:07;0.50;;;0.50;;
5704;SDS011;2877;48.238;11.160;2023-04-01T22:38:21;1.73;;;0.43;;
5704;SDS011;2877;48.238;11.160;2023-04-01T22:43:51;2.00;;;0.50;;
5704;SDS011;2877;48.238;11.160;2023-04-01T22:51:39;1.50;;;0.50;;
5704;SDS011;2877;48.238;11.160;2023-04-01T22:54:13;0.33;;;0.33;;
5704;SDS011;2877;48.238;11.160;2023-04-01T23:00:17;1.17;;;0.40;;
5704;SDS011;2877;48.238;11.160;2023-04-01T23:11:06;0.50;;;0.50;;
5704;SDS011;2877;48.238;11.160;2023-04-01T23:13:44;0.67;;;0.40;;
5704;SDS011;2877;48.238;11.160;2023-04-01T23:16:17;4.43;;;0.60;;
5704;SDS011;2877;48.238;11.160;2023-04-01T23:18:59;0.70;;;0.40;;
5704;SDS011;2877;48.238;11.160;2023-04-01T23:24:48;0.50;;;0.50;;
5704;SDS011;2877;48.238;11.160;2023-04-01T23:27:11;0.70;;;0.50;;
5704;SDS011;2877;48.238;11.160;2023-04-01T23:29:56;0.40;;;0.40;;
5704;SDS011;2877;48.238;11.160;2023-04-01T23:32:22;1.63;;;0.43;;
5704;SDS011;2877;48.238;11.160;2023-04-01T23:34:51;1.50;;;0.50;;
5704;SDS011;2877;48.238;11.160;2023-04-01T23:37:20;0.77;;;0.60;;
5704;SDS011;2877;48.238;11.160;2023-04-01T23:39:48;0.40;;;0.40;;
5704;SDS011;2877;48.238;11.160;2023-04-01T23:42:23;0.87;;;0.40;;
5704;SDS011;2877;48.238;11.160;2023-04-01T23:45:02;0.57;;;0.47;;
5704;SDS011;2877;48.238;11.160;2023-04-01T23:47:35;3.13;;;0.50;;
5704;SDS011;2877;48.238;11.160;2023-04-01T23:50:23;0.40;;;0.40;;
5704;SDS011;2877;48.238;11.160;2023-04-01T23:53:02;1.03;;;0.50;;
5704;SDS011;2877;48.238;11.160;2023-04-01T23:55:34;0.50;;;0.50;;
